EDSB

Karlsruhe Baden-Baden Airport

Baden-Baden, Germany
METAR EDSB 240350Z 33003KT 9999 FEW035 SCT048 BKN056 10/06 Q1029
Observed Flight Rules
Sep-24 @ 03:50 UTC (21 minutes ago) Visual Flight Rules
Wind Visibility Clouds
330° at 3 knots 10,000+ meters
  • Few at 3,500' AGL
  • Scattered at 4,800' AGL
  • Broken at 5,600' AGL
Temperatures Readings
Current 10°C / 50°F
Dewpoint 6°C / 43°F
Humidity 76%
Altimeter 30.38" Hg
Pressure 1029 hPa
Elevation 124
METAR EDSB 240350Z 33003KT 9999 FEW035 SCT048 BKN056 10/06 Q1029
Observed Flight Rules
Sep-24 @ 03:50 UTC
(21 minutes ago)
VFR
Wind Visibility
330° at 3 knots 10,000+ meters
Clouds
  • Few at 3,500' AGL
  • Scattered at 4,800' AGL
  • Broken at 5,600' AGL
Temperature Dewpoint
10°C / 50°F 6°C / 43°F
Humidity Altimeter Pressure
76% 30.38" Hg 1029 hPa